sensor_id;sensor_type;location;lat;lon;timestamp;temperature;humidity
2941;DHT22;1480;51.456;6.670;2022-12-18T00:01:37;0.20;0.20
2941;DHT22;1480;51.456;6.670;2022-12-18T00:04:05;0.20;0.20
2941;DHT22;1480;51.456;6.670;2022-12-18T00:06:35;0.20;0.20
2941;DHT22;1480;51.456;6.670;2022-12-18T00:09:03;0.20;0.20
2941;DHT22;1480;51.456;6.670;2022-12-18T00:11:30;0.20;0.20
2941;DHT22;1480;51.456;6.670;2022-12-18T00:13:59;0.20;0.20
2941;DHT22;1480;51.456;6.670;2022-12-18T00:16:27;0.20;0.20
2941;DHT22;1480;51.456;6.670;2022-12-18T00:18:57;0.20;0.20
2941;DHT22;1480;51.456;6.670;2022-12-18T00:21:24;0.20;0.20
2941;DHT22;1480;51.456;6.670;2022-12-18T00:23:52;0.20;0.20
2941;DHT22;1480;51.456;6.670;2022-12-18T00:26:20;0.20;0.20
2941;DHT22;1480;51.456;6.670;2022-12-18T00:28:49;0.20;0.20
2941;DHT22;1480;51.456;6.670;2022-12-18T00:31:21;0.20;0.20
2941;DHT22;1480;51.456;6.670;2022-12-18T00:33:48;0.20;0.20
2941;DHT22;1480;51.456;6.670;2022-12-18T00:36:16;0.20;0.20
2941;DHT22;1480;51.456;6.670;2022-12-18T00:38:44;0.20;0.20
2941;DHT22;1480;51.456;6.670;2022-12-18T00:41:13;0.20;0.20
2941;DHT22;1480;51.456;6.670;2022-12-18T00:44:01;0.20;0.20
2941;DHT22;1480;51.456;6.670;2022-12-18T00:46:28;0.20;0.20
2941;DHT22;1480;51.456;6.670;2022-12-18T00:48:55;0.20;0.20
2941;DHT22;1480;51.456;6.670;2022-12-18T00:51:22;0.20;0.20
2941;DHT22;1480;51.456;6.670;2022-12-18T00:53:49;0.20;0.20
2941;DHT22;1480;51.456;6.670;2022-12-18T00:56:16;0.20;0.20
2941;DHT22;1480;51.456;6.670;2022-12-18T00:58:42;0.20;0.20
2941;DHT22;1480;51.456;6.670;2022-12-18T01:01:10;0.20;0.20
2941;DHT22;1480;51.456;6.670;2022-12-18T01:03:38;0.20;0.20
2941;DHT22;1480;51.456;6.670;2022-12-18T01:06:06;0.20;0.20
2941;DHT22;1480;51.456;6.670;2022-12-18T01:08:33;0.20;0.20
2941;DHT22;1480;51.456;6.670;2022-12-18T01:11:01;0.20;0.20
2941;DHT22;1480;51.456;6.670;2022-12-18T01:13:28;0.20;0.20
2941;DHT22;1480;51.456;6.670;2022-12-18T01:15:55;0.20;0.20
2941;DHT22;1480;51.456;6.670;2022-12-18T01:18:21;0.20;0.20
2941;DHT22;1480;51.456;6.670;2022-12-18T01:20:51;0.20;0.20
2941;DHT22;1480;51.456;6.670;2022-12-18T01:23:18;0.20;0.20
2941;DHT22;1480;51.456;6.670;2022-12-18T01:25:45;0.20;0.20
2941;DHT22;1480;51.456;6.670;2022-12-18T01:28:12;0.20;0.20
2941;DHT22;1480;51.456;6.670;2022-12-18T01:30:40;0.20;0.20
2941;DHT22;1480;51.456;6.670;2022-12-18T01:33:07;0.20;0.20
2941;DHT22;1480;51.456;6.670;2022-12-18T01:35:40;0.20;0.20
2941;DHT22;1480;51.456;6.670;2022-12-18T01:38:09;0.20;0.20
2941;DHT22;1480;51.456;6.670;2022-12-18T01:40:36;0.20;0.20
2941;DHT22;1480;51.456;6.670;2022-12-18T01:43:03;0.20;0.20
2941;DHT22;1480;51.456;6.670;2022-12-18T01:45:31;0.20;0.20
2941;DHT22;1480;51.456;6.670;2022-12-18T01:48:00;0.20;0.20
2941;DHT22;1480;51.456;6.670;2022-12-18T01:50:31;0.20;0.20
2941;DHT22;1480;51.456;6.670;2022-12-18T01:53:02;0.20;0.20
2941;DHT22;1480;51.456;6.670;2022-12-18T01:55:35;0.20;0.20
2941;DHT22;1480;51.456;6.670;2022-12-18T01:58:03;0.20;0.20
2941;DHT22;1480;51.456;6.670;2022-12-18T02:00:31;0.20;0.20
2941;DHT22;1480;51.456;6.670;2022-12-18T02:02:58;0.20;0.20
2941;DHT22;1480;51.456;6.670;2022-12-18T02:05:33;0.20;0.20
2941;DHT22;1480;51.456;6.670;2022-12-18T02:08:08;0.20;0.20
2941;DHT22;1480;51.456;6.670;2022-12-18T02:10:41;0.20;0.20
2941;DHT22;1480;51.456;6.670;2022-12-18T02:13:14;0.20;0.20
2941;DHT22;1480;51.456;6.670;2022-12-18T02:15:51;0.20;0.20
2941;DHT22;1480;51.456;6.670;2022-12-18T02:18:25;0.20;0.20
2941;DHT22;1480;51.456;6.670;2022-12-18T02:20:57;0.20;0.20
2941;DHT22;1480;51.456;6.670;2022-12-18T02:23:39;0.20;0.20
2941;DHT22;1480;51.456;6.670;2022-12-18T02:26:16;0.20;0.20
2941;DHT22;1480;51.456;6.670;2022-12-18T02:28:48;0.20;0.20
2941;DHT22;1480;51.456;6.670;2022-12-18T02:31:21;0.20;0.20
2941;DHT22;1480;51.456;6.670;2022-12-18T02:33:49;0.20;0.20
2941;DHT22;1480;51.456;6.670;2022-12-18T02:36:18;0.20;0.20
2941;DHT22;1480;51.456;6.670;2022-12-18T02:38:49;0.20;0.20
2941;DHT22;1480;51.456;6.670;2022-12-18T02:41:18;0.20;0.20
2941;DHT22;1480;51.456;6.670;2022-12-18T02:43:55;0.20;0.20
2941;DHT22;1480;51.456;6.670;2022-12-18T02:46:30;0.20;0.20
2941;DHT22;1480;51.456;6.670;2022-12-18T02:49:11;0.20;0.20
2941;DHT22;1480;51.456;6.670;2022-12-18T02:51:46;0.20;0.20
2941;DHT22;1480;51.456;6.670;2022-12-18T02:54:20;0.20;0.20
2941;DHT22;1480;51.456;6.670;2022-12-18T02:56:53;0.20;0.20
2941;DHT22;1480;51.456;6.670;2022-12-18T02:59:25;0.20;0.20
2941;DHT22;1480;51.456;6.670;2022-12-18T03:01:58;0.20;0.20
2941;DHT22;1480;51.456;6.670;2022-12-18T03:04:32;0.20;0.20
2941;DHT22;1480;51.456;6.670;2022-12-18T03:07:05;0.20;0.20
2941;DHT22;1480;51.456;6.670;2022-12-18T03:09:36;0.20;0.20
2941;DHT22;1480;51.456;6.670;2022-12-18T03:12:10;0.20;0.20
2941;DHT22;1480;51.456;6.670;2022-12-18T03:14:59;0.20;0.20
2941;DHT22;1480;51.456;6.670;2022-12-18T03:17:31;0.20;0.20
2941;DHT22;1480;51.456;6.670;2022-12-18T03:20:02;0.20;0.20
2941;DHT22;1480;51.456;6.670;2022-12-18T03:22:33;0.20;0.20
2941;DHT22;1480;51.456;6.670;2022-12-18T03:25:05;0.20;0.20
2941;DHT22;1480;51.456;6.670;2022-12-18T03:27:37;0.20;0.20
2941;DHT22;1480;51.456;6.670;2022-12-18T03:30:11;0.20;0.20
2941;DHT22;1480;51.456;6.670;2022-12-18T03:32:41;0.20;0.20
2941;DHT22;1480;51.456;6.670;2022-12-18T03:35:12;-3276.50;71.10
2941;DHT22;1480;51.456;6.670;2022-12-18T03:37:42;0.20;0.20
2941;DHT22;1480;51.456;6.670;2022-12-18T03:40:10;0.20;0.20
2941;DHT22;1480;51.456;6.670;2022-12-18T03:42:45;0.20;0.20
2941;DHT22;1480;51.456;6.670;2022-12-18T03:45:19;0.20;0.20
2941;DHT22;1480;51.456;6.670;2022-12-18T03:47:57;0.20;0.20
2941;DHT22;1480;51.456;6.670;2022-12-18T03:50:29;0.20;0.20
2941;DHT22;1480;51.456;6.670;2022-12-18T03:53:01;0.20;0.20
2941;DHT22;1480;51.456;6.670;2022-12-18T03:55:33;0.20;0.20
2941;DHT22;1480;51.456;6.670;2022-12-18T03:58:06;0.20;0.20
2941;DHT22;1480;51.456;6.670;2022-12-18T04:00:49;0.20;0.20
2941;DHT22;1480;51.456;6.670;2022-12-18T04:03:16;0.20;0.20
2941;DHT22;1480;51.456;6.670;2022-12-18T04:05:49;0.20;0.20
2941;DHT22;1480;51.456;6.670;2022-12-18T04:08:19;0.20;0.20
2941;DHT22;1480;51.456;6.670;2022-12-18T04:10:56;0.20;0.20
2941;DHT22;1480;51.456;6.670;2022-12-18T04:13:29;0.20;0.20
2941;DHT22;1480;51.456;6.670;2022-12-18T04:15:58;0.20;0.20
2941;DHT22;1480;51.456;6.670;2022-12-18T04:18:26;0.20;0.20
2941;DHT22;1480;51.456;6.670;2022-12-18T04:20:54;0.20;0.20
2941;DHT22;1480;51.456;6.670;2022-12-18T04:23:21;0.20;0.20
2941;DHT22;1480;51.456;6.670;2022-12-18T04:25:48;0.20;0.20
2941;DHT22;1480;51.456;6.670;2022-12-18T04:28:27;0.20;0.20
2941;DHT22;1480;51.456;6.670;2022-12-18T04:30:54;0.20;0.20
2941;DHT22;1480;51.456;6.670;2022-12-18T04:33:21;0.20;0.20
2941;DHT22;1480;51.456;6.670;2022-12-18T04:35:48;0.20;0.20
2941;DHT22;1480;51.456;6.670;2022-12-18T04:38:17;0.20;0.20
2941;DHT22;1480;51.456;6.670;2022-12-18T04:40:45;0.20;0.20
2941;DHT22;1480;51.456;6.670;2022-12-18T04:43:20;0.20;0.20
2941;DHT22;1480;51.456;6.670;2022-12-18T04:45:48;0.20;0.20
2941;DHT22;1480;51.456;6.670;2022-12-18T04:48:15;0.20;0.20
2941;DHT22;1480;51.456;6.670;2022-12-18T04:50:42;0.20;0.20
2941;DHT22;1480;51.456;6.670;2022-12-18T04:53:09;0.20;0.20
2941;DHT22;1480;51.456;6.670;2022-12-18T04:55:36;0.20;0.20
2941;DHT22;1480;51.456;6.670;2022-12-18T04:58:02;0.20;0.20
2941;DHT22;1480;51.456;6.670;2022-12-18T05:00:29;0.20;0.20
2941;DHT22;1480;51.456;6.670;2022-12-18T05:02:57;0.20;0.20
2941;DHT22;1480;51.456;6.670;2022-12-18T05:05:27;0.20;0.20
2941;DHT22;1480;51.456;6.670;2022-12-18T05:07:54;0.20;0.20
2941;DHT22;1480;51.456;6.670;2022-12-18T05:10:20;0.20;0.20
2941;DHT22;1480;51.456;6.670;2022-12-18T05:12:47;0.20;0.20
2941;DHT22;1480;51.456;6.670;2022-12-18T05:15:28;0.20;0.20
2941;DHT22;1480;51.456;6.670;2022-12-18T05:17:57;0.20;0.20
2941;DHT22;1480;51.456;6.670;2022-12-18T05:20:25;0.20;0.20
2941;DHT22;1480;51.456;6.670;2022-12-18T05:22:52;0.20;0.20
2941;DHT22;1480;51.456;6.670;2022-12-18T05:25:20;0.20;0.20
2941;DHT22;1480;51.456;6.670;2022-12-18T05:27:47;0.20;0.20
2941;DHT22;1480;51.456;6.670;2022-12-18T05:30:15;0.20;0.20
2941;DHT22;1480;51.456;6.670;2022-12-18T05:32:42;0.20;0.20
2941;DHT22;1480;51.456;6.670;2022-12-18T05:35:11;0.20;0.20
2941;DHT22;1480;51.456;6.670;2022-12-18T05:37:38;0.20;0.20
2941;DHT22;1480;51.456;6.670;2022-12-18T05:40:06;0.20;0.20
2941;DHT22;1480;51.456;6.670;2022-12-18T05:42:33;0.20;0.20
2941;DHT22;1480;51.456;6.670;2022-12-18T05:45:00;0.20;0.20
2941;DHT22;1480;51.456;6.670;2022-12-18T05:47:27;0.20;0.20
2941;DHT22;1480;51.456;6.670;2022-12-18T05:49:54;0.20;0.20
2941;DHT22;1480;51.456;6.670;2022-12-18T05:52:22;0.20;0.20
2941;DHT22;1480;51.456;6.670;2022-12-18T05:54:50;0.20;0.20
2941;DHT22;1480;51.456;6.670;2022-12-18T05:57:16;0.20;0.20
2941;DHT22;1480;51.456;6.670;2022-12-18T05:59:43;0.20;0.20
2941;DHT22;1480;51.456;6.670;2022-12-18T06:02:10;0.20;0.20
2941;DHT22;1480;51.456;6.670;2022-12-18T06:04:37;0.20;0.20
2941;DHT22;1480;51.456;6.670;2022-12-18T06:07:04;0.20;0.20
2941;DHT22;1480;51.456;6.670;2022-12-18T06:09:32;0.20;0.20
2941;DHT22;1480;51.456;6.670;2022-12-18T06:11:59;0.20;0.20
2941;DHT22;1480;51.456;6.670;2022-12-18T06:14:26;0.20;0.20
2941;DHT22;1480;51.456;6.670;2022-12-18T06:16:53;0.20;0.20
2941;DHT22;1480;51.456;6.670;2022-12-18T06:19:20;0.20;0.20
2941;DHT22;1480;51.456;6.670;2022-12-18T06:21:47;0.20;0.20
2941;DHT22;1480;51.456;6.670;2022-12-18T06:24:14;0.20;0.20
2941;DHT22;1480;51.456;6.670;2022-12-18T06:26:43;0.20;0.20
2941;DHT22;1480;51.456;6.670;2022-12-18T06:29:10;0.20;0.20
2941;DHT22;1480;51.456;6.670;2022-12-18T06:31:36;0.20;0.20
2941;DHT22;1480;51.456;6.670;2022-12-18T06:34:04;0.20;0.20
2941;DHT22;1480;51.456;6.670;2022-12-18T06:36:31;0.20;0.20
2941;DHT22;1480;51.456;6.670;2022-12-18T06:38:58;0.20;0.20
2941;DHT22;1480;51.456;6.670;2022-12-18T06:41:25;0.20;0.20
2941;DHT22;1480;51.456;6.670;2022-12-18T06:43:53;0.20;0.20
2941;DHT22;1480;51.456;6.670;2022-12-18T06:46:21;0.20;0.20
2941;DHT22;1480;51.456;6.670;2022-12-18T06:48:48;0.20;0.20
2941;DHT22;1480;51.456;6.670;2022-12-18T06:51:17;0.20;0.20
2941;DHT22;1480;51.456;6.670;2022-12-18T06:53:44;0.20;0.20
2941;DHT22;1480;51.456;6.670;2022-12-18T06:56:11;0.20;0.20
2941;DHT22;1480;51.456;6.670;2022-12-18T06:58:38;0.20;0.20
2941;DHT22;1480;51.456;6.670;2022-12-18T07:01:09;0.20;0.20
2941;DHT22;1480;51.456;6.670;2022-12-18T07:03:37;0.20;0.20
2941;DHT22;1480;51.456;6.670;2022-12-18T07:06:04;0.20;0.20
2941;DHT22;1480;51.456;6.670;2022-12-18T07:08:33;0.20;0.20
2941;DHT22;1480;51.456;6.670;2022-12-18T07:11:03;0.20;0.20
2941;DHT22;1480;51.456;6.670;2022-12-18T07:13:31;0.20;0.20
2941;DHT22;1480;51.456;6.670;2022-12-18T07:16:04;0.20;0.20
2941;DHT22;1480;51.456;6.670;2022-12-18T07:18:32;0.20;0.20
2941;DHT22;1480;51.456;6.670;2022-12-18T07:21:03;0.20;0.20
2941;DHT22;1480;51.456;6.670;2022-12-18T07:23:31;0.20;0.20
2941;DHT22;1480;51.456;6.670;2022-12-18T07:26:01;0.20;0.20
2941;DHT22;1480;51.456;6.670;2022-12-18T07:28:28;0.20;0.20
2941;DHT22;1480;51.456;6.670;2022-12-18T07:30:55;0.20;0.20
2941;DHT22;1480;51.456;6.670;2022-12-18T07:33:22;0.20;0.20
2941;DHT22;1480;51.456;6.670;2022-12-18T07:35:50;0.20;0.20
2941;DHT22;1480;51.456;6.670;2022-12-18T07:38:17;0.20;0.20
2941;DHT22;1480;51.456;6.670;2022-12-18T07:40:44;0.20;0.20
2941;DHT22;1480;51.456;6.670;2022-12-18T07:43:11;0.20;0.20
2941;DHT22;1480;51.456;6.670;2022-12-18T07:45:37;0.20;0.20
2941;DHT22;1480;51.456;6.670;2022-12-18T07:48:05;0.20;0.20
2941;DHT22;1480;51.456;6.670;2022-12-18T07:50:31;0.20;0.20
2941;DHT22;1480;51.456;6.670;2022-12-18T07:53:00;0.20;0.20
2941;DHT22;1480;51.456;6.670;2022-12-18T07:55:29;0.20;0.20
2941;DHT22;1480;51.456;6.670;2022-12-18T07:57:56;0.20;0.20
2941;DHT22;1480;51.456;6.670;2022-12-18T08:00:22;0.20;0.20
2941;DHT22;1480;51.456;6.670;2022-12-18T08:02:49;0.20;0.20
2941;DHT22;1480;51.456;6.670;2022-12-18T08:05:17;0.20;0.20
2941;DHT22;1480;51.456;6.670;2022-12-18T08:07:43;0.20;0.20
2941;DHT22;1480;51.456;6.670;2022-12-18T08:10:12;0.20;0.20
2941;DHT22;1480;51.456;6.670;2022-12-18T08:12:39;0.20;0.20
2941;DHT22;1480;51.456;6.670;2022-12-18T08:15:08;0.20;0.20
2941;DHT22;1480;51.456;6.670;2022-12-18T08:17:35;0.20;0.20
2941;DHT22;1480;51.456;6.670;2022-12-18T08:20:02;0.20;0.20
2941;DHT22;1480;51.456;6.670;2022-12-18T08:22:29;0.20;0.20
2941;DHT22;1480;51.456;6.670;2022-12-18T08:24:57;0.20;0.20
2941;DHT22;1480;51.456;6.670;2022-12-18T08:27:25;0.20;0.20
2941;DHT22;1480;51.456;6.670;2022-12-18T08:29:52;-3275.60;75.40
2941;DHT22;1480;51.456;6.670;2022-12-18T08:32:19;-3275.70;75.00
2941;DHT22;1480;51.456;6.670;2022-12-18T08:34:46;-3275.90;74.40
2941;DHT22;1480;51.456;6.670;2022-12-18T08:37:13;-3275.90;74.60
2941;DHT22;1480;51.456;6.670;2022-12-18T08:39:40;-3275.90;73.90
2941;DHT22;1480;51.456;6.670;2022-12-18T08:42:07;-3275.90;73.80
2941;DHT22;1480;51.456;6.670;2022-12-18T08:44:52;-3276.10;73.90
2941;DHT22;1480;51.456;6.670;2022-12-18T08:47:19;-3276.10;73.80
2941;DHT22;1480;51.456;6.670;2022-12-18T08:49:46;-3276.40;72.70
2941;DHT22;1480;51.456;6.670;2022-12-18T08:52:14;-3276.30;73.30
2941;DHT22;1480;51.456;6.670;2022-12-18T08:54:41;-3276.50;72.30
2941;DHT22;1480;51.456;6.670;2022-12-18T08:57:08;-3276.70;72.60
2941;DHT22;1480;51.456;6.670;2022-12-18T08:59:35;0.00;72.20
2941;DHT22;1480;51.456;6.670;2022-12-18T09:02:03;-3276.70;71.80
2941;DHT22;1480;51.456;6.670;2022-12-18T09:04:30;0.00;70.90
2941;DHT22;1480;51.456;6.670;2022-12-18T09:06:57;0.00;70.70
2941;DHT22;1480;51.456;6.670;2022-12-18T09:09:24;0.00;70.40
2941;DHT22;1480;51.456;6.670;2022-12-18T09:11:51;0.00;70.30
2941;DHT22;1480;51.456;6.670;2022-12-18T09:14:18;0.10;70.20
2941;DHT22;1480;51.456;6.670;2022-12-18T09:16:44;0.10;70.00
2941;DHT22;1480;51.456;6.670;2022-12-18T09:19:13;0.40;69.80
2941;DHT22;1480;51.456;6.670;2022-12-18T09:21:40;0.30;69.80
2941;DHT22;1480;51.456;6.670;2022-12-18T09:24:12;0.20;70.00
2941;DHT22;1480;51.456;6.670;2022-12-18T09:26:39;0.30;69.60
2941;DHT22;1480;51.456;6.670;2022-12-18T09:29:06;0.70;69.70
2941;DHT22;1480;51.456;6.670;2022-12-18T09:31:34;1.10;68.90
2941;DHT22;1480;51.456;6.670;2022-12-18T09:34:01;1.20;67.50
2941;DHT22;1480;51.456;6.670;2022-12-18T09:36:32;1.10;66.60
2941;DHT22;1480;51.456;6.670;2022-12-18T09:38:59;1.20;66.50
2941;DHT22;1480;51.456;6.670;2022-12-18T09:41:39;1.10;66.60
2941;DHT22;1480;51.456;6.670;2022-12-18T09:44:19;1.10;67.40
2941;DHT22;1480;51.456;6.670;2022-12-18T09:46:51;1.00;66.80
2941;DHT22;1480;51.456;6.670;2022-12-18T09:49:23;1.20;67.90
2941;DHT22;1480;51.456;6.670;2022-12-18T09:51:54;0.90;67.70
2941;DHT22;1480;51.456;6.670;2022-12-18T09:54:26;0.80;66.80
2941;DHT22;1480;51.456;6.670;2022-12-18T09:56:53;0.80;66.40
2941;DHT22;1480;51.456;6.670;2022-12-18T09:59:23;1.00;66.30
2941;DHT22;1480;51.456;6.670;2022-12-18T10:01:50;0.80;66.00
2941;DHT22;1480;51.456;6.670;2022-12-18T10:04:18;1.00;65.90
2941;DHT22;1480;51.456;6.670;2022-12-18T10:06:52;1.00;65.60
2941;DHT22;1480;51.456;6.670;2022-12-18T10:09:28;1.00;65.70
2941;DHT22;1480;51.456;6.670;2022-12-18T10:12:07;1.20;65.60
2941;DHT22;1480;51.456;6.670;2022-12-18T10:14:42;1.00;64.70
2941;DHT22;1480;51.456;6.670;2022-12-18T10:17:22;1.10;65.50
2941;DHT22;1480;51.456;6.670;2022-12-18T10:19:56;1.30;65.20
2941;DHT22;1480;51.456;6.670;2022-12-18T10:22:41;1.20;65.10
2941;DHT22;1480;51.456;6.670;2022-12-18T10:25:19;1.20;65.70
2941;DHT22;1480;51.456;6.670;2022-12-18T10:27:47;1.30;65.00
2941;DHT22;1480;51.456;6.670;2022-12-18T10:30:18;1.40;65.60
2941;DHT22;1480;51.456;6.670;2022-12-18T10:32:45;1.40;65.20
2941;DHT22;1480;51.456;6.670;2022-12-18T10:35:18;1.40;64.00
2941;DHT22;1480;51.456;6.670;2022-12-18T10:38:05;1.60;64.20
2941;DHT22;1480;51.456;6.670;2022-12-18T10:40:48;1.50;64.20
2941;DHT22;1480;51.456;6.670;2022-12-18T10:43:19;1.80;63.70
2941;DHT22;1480;51.456;6.670;2022-12-18T10:45:59;1.70;63.80
2941;DHT22;1480;51.456;6.670;2022-12-18T10:48:26;1.80;64.00
2941;DHT22;1480;51.456;6.670;2022-12-18T10:50:54;2.00;63.80
2941;DHT22;1480;51.456;6.670;2022-12-18T10:53:24;1.90;63.30
2941;DHT22;1480;51.456;6.670;2022-12-18T10:55:52;1.70;63.10
2941;DHT22;1480;51.456;6.670;2022-12-18T10:58:24;1.80;63.50
2941;DHT22;1480;51.456;6.670;2022-12-18T11:01:09;1.90;62.70
2941;DHT22;1480;51.456;6.670;2022-12-18T11:03:38;1.90;63.10
2941;DHT22;1480;51.456;6.670;2022-12-18T11:06:08;1.90;62.80
2941;DHT22;1480;51.456;6.670;2022-12-18T11:08:37;2.10;63.30
2941;DHT22;1480;51.456;6.670;2022-12-18T11:11:09;2.10;63.30
2941;DHT22;1480;51.456;6.670;2022-12-18T11:13:51;2.00;61.80
2941;DHT22;1480;51.456;6.670;2022-12-18T11:16:21;2.10;63.20
2941;DHT22;1480;51.456;6.670;2022-12-18T11:18:49;2.00;62.80
2941;DHT22;1480;51.456;6.670;2022-12-18T11:21:16;2.30;62.90
2941;DHT22;1480;51.456;6.670;2022-12-18T11:23:47;2.20;62.60
2941;DHT22;1480;51.456;6.670;2022-12-18T11:26:16;2.30;63.00
2941;DHT22;1480;51.456;6.670;2022-12-18T11:28:45;2.30;63.40
2941;DHT22;1480;51.456;6.670;2022-12-18T11:31:24;2.30;63.50
2941;DHT22;1480;51.456;6.670;2022-12-18T11:34:01;2.30;62.80
2941;DHT22;1480;51.456;6.670;2022-12-18T11:36:32;2.40;62.80
2941;DHT22;1480;51.456;6.670;2022-12-18T11:39:09;2.50;62.80
2941;DHT22;1480;51.456;6.670;2022-12-18T11:41:41;2.40;62.00
2941;DHT22;1480;51.456;6.670;2022-12-18T11:44:34;2.60;62.00
2941;DHT22;1480;51.456;6.670;2022-12-18T11:47:05;2.50;62.10
2941;DHT22;1480;51.456;6.670;2022-12-18T11:49:35;2.60;62.60
2941;DHT22;1480;51.456;6.670;2022-12-18T11:52:13;2.40;62.50
2941;DHT22;1480;51.456;6.670;2022-12-18T11:54:43;2.80;62.20
2941;DHT22;1480;51.456;6.670;2022-12-18T11:57:16;2.60;62.60
2941;DHT22;1480;51.456;6.670;2022-12-18T11:59:52;2.50;62.30
2941;DHT22;1480;51.456;6.670;2022-12-18T12:02:41;2.70;63.00
2941;DHT22;1480;51.456;6.670;2022-12-18T12:05:32;2.80;62.20
2941;DHT22;1480;51.456;6.670;2022-12-18T12:08:15;2.80;62.90
2941;DHT22;1480;51.456;6.670;2022-12-18T12:10:52;2.60;63.50
2941;DHT22;1480;51.456;6.670;2022-12-18T12:13:33;2.70;62.50
2941;DHT22;1480;51.456;6.670;2022-12-18T12:16:12;2.70;62.80
2941;DHT22;1480;51.456;6.670;2022-12-18T12:18:51;2.40;62.70
2941;DHT22;1480;51.456;6.670;2022-12-18T12:21:24;2.50;62.50
2941;DHT22;1480;51.456;6.670;2022-12-18T12:23:58;2.80;61.50
2941;DHT22;1480;51.456;6.670;2022-12-18T12:26:35;2.60;61.60
2941;DHT22;1480;51.456;6.670;2022-12-18T12:29:20;2.80;60.90
2941;DHT22;1480;51.456;6.670;2022-12-18T12:31:58;2.70;60.50
2941;DHT22;1480;51.456;6.670;2022-12-18T12:34:34;2.50;61.10
2941;DHT22;1480;51.456;6.670;2022-12-18T12:37:15;2.80;61.60
2941;DHT22;1480;51.456;6.670;2022-12-18T12:39:46;2.70;60.90
2941;DHT22;1480;51.456;6.670;2022-12-18T12:42:20;2.60;60.90
2941;DHT22;1480;51.456;6.670;2022-12-18T12:45:16;2.60;60.50
2941;DHT22;1480;51.456;6.670;2022-12-18T12:47:46;2.60;60.60
2941;DHT22;1480;51.456;6.670;2022-12-18T12:50:17;2.40;59.60
2941;DHT22;1480;51.456;6.670;2022-12-18T12:52:47;2.60;59.70
2941;DHT22;1480;51.456;6.670;2022-12-18T12:55:18;2.60;59.80
2941;DHT22;1480;51.456;6.670;2022-12-18T12:57:54;2.50;59.70
2941;DHT22;1480;51.456;6.670;2022-12-18T13:00:22;2.40;60.40
2941;DHT22;1480;51.456;6.670;2022-12-18T13:02:56;2.50;60.20
2941;DHT22;1480;51.456;6.670;2022-12-18T13:05:30;2.40;60.00
2941;DHT22;1480;51.456;6.670;2022-12-18T13:08:03;2.60;59.60
2941;DHT22;1480;51.456;6.670;2022-12-18T13:10:34;2.40;60.50
2941;DHT22;1480;51.456;6.670;2022-12-18T13:13:04;2.40;60.70
2941;DHT22;1480;51.456;6.670;2022-12-18T13:15:37;2.50;61.00
2941;DHT22;1480;51.456;6.670;2022-12-18T13:18:20;2.40;60.80
2941;DHT22;1480;51.456;6.670;2022-12-18T13:20:50;2.30;60.20
2941;DHT22;1480;51.456;6.670;2022-12-18T13:23:27;2.60;60.50
2941;DHT22;1480;51.456;6.670;2022-12-18T13:25:55;2.40;60.30
2941;DHT22;1480;51.456;6.670;2022-12-18T13:28:53;2.40;60.60
2941;DHT22;1480;51.456;6.670;2022-12-18T13:31:57;2.50;60.30
2941;DHT22;1480;51.456;6.670;2022-12-18T13:34:26;2.40;59.80
2941;DHT22;1480;51.456;6.670;2022-12-18T13:36:55;2.30;60.10
2941;DHT22;1480;51.456;6.670;2022-12-18T13:39:34;2.40;59.10
2941;DHT22;1480;51.456;6.670;2022-12-18T13:42:37;2.50;60.10
2941;DHT22;1480;51.456;6.670;2022-12-18T13:45:43;2.50;60.20
2941;DHT22;1480;51.456;6.670;2022-12-18T13:48:16;2.40;59.50
2941;DHT22;1480;51.456;6.670;2022-12-18T13:50:52;2.20;59.70
2941;DHT22;1480;51.456;6.670;2022-12-18T13:53:22;2.30;60.30
2941;DHT22;1480;51.456;6.670;2022-12-18T13:55:50;2.40;60.20
2941;DHT22;1480;51.456;6.670;2022-12-18T13:58:17;2.30;60.50
2941;DHT22;1480;51.456;6.670;2022-12-18T14:00:45;2.30;59.80
2941;DHT22;1480;51.456;6.670;2022-12-18T14:03:18;2.60;60.30
2941;DHT22;1480;51.456;6.670;2022-12-18T14:05:46;2.50;59.90
2941;DHT22;1480;51.456;6.670;2022-12-18T14:08:18;2.50;59.90
2941;DHT22;1480;51.456;6.670;2022-12-18T14:10:47;2.40;59.70
2941;DHT22;1480;51.456;6.670;2022-12-18T14:13:20;2.30;59.50
2941;DHT22;1480;51.456;6.670;2022-12-18T14:15:50;2.40;59.40
2941;DHT22;1480;51.456;6.670;2022-12-18T14:18:21;2.40;59.50
2941;DHT22;1480;51.456;6.670;2022-12-18T14:20:51;2.20;60.20
2941;DHT22;1480;51.456;6.670;2022-12-18T14:23:29;2.30;59.90
2941;DHT22;1480;51.456;6.670;2022-12-18T14:25:57;2.20;59.80
2941;DHT22;1480;51.456;6.670;2022-12-18T14:28:24;2.20;59.80
2941;DHT22;1480;51.456;6.670;2022-12-18T14:30:53;2.30;59.70
2941;DHT22;1480;51.456;6.670;2022-12-18T14:33:23;2.40;60.10
2941;DHT22;1480;51.456;6.670;2022-12-18T14:35:56;2.10;59.80
2941;DHT22;1480;51.456;6.670;2022-12-18T14:38:29;2.30;60.30
2941;DHT22;1480;51.456;6.670;2022-12-18T14:40:59;2.40;60.00
2941;DHT22;1480;51.456;6.670;2022-12-18T14:43:27;2.10;60.30
2941;DHT22;1480;51.456;6.670;2022-12-18T14:45:56;2.30;60.20
2941;DHT22;1480;51.456;6.670;2022-12-18T14:48:35;1.90;60.00
2941;DHT22;1480;51.456;6.670;2022-12-18T14:51:05;1.90;60.40
2941;DHT22;1480;51.456;6.670;2022-12-18T14:53:35;2.00;60.60
2941;DHT22;1480;51.456;6.670;2022-12-18T14:56:03;2.00;60.50
2941;DHT22;1480;51.456;6.670;2022-12-18T14:58:30;1.90;60.30
2941;DHT22;1480;51.456;6.670;2022-12-18T15:00:58;2.00;60.50
2941;DHT22;1480;51.456;6.670;2022-12-18T15:03:25;2.20;60.20
2941;DHT22;1480;51.456;6.670;2022-12-18T15:05:52;1.90;60.50
2941;DHT22;1480;51.456;6.670;2022-12-18T15:08:37;1.90;60.20
2941;DHT22;1480;51.456;6.670;2022-12-18T15:11:27;2.00;61.00
2941;DHT22;1480;51.456;6.670;2022-12-18T15:13:54;2.20;61.30
2941;DHT22;1480;51.456;6.670;2022-12-18T15:16:22;1.90;61.20
2941;DHT22;1480;51.456;6.670;2022-12-18T15:18:49;2.10;61.20
2941;DHT22;1480;51.456;6.670;2022-12-18T15:21:25;1.90;61.40
2941;DHT22;1480;51.456;6.670;2022-12-18T15:23:56;1.80;61.80
2941;DHT22;1480;51.456;6.670;2022-12-18T15:26:25;1.80;61.80
2941;DHT22;1480;51.456;6.670;2022-12-18T15:28:55;1.80;62.00
2941;DHT22;1480;51.456;6.670;2022-12-18T15:31:30;1.70;62.10
2941;DHT22;1480;51.456;6.670;2022-12-18T15:34:10;1.90;62.30
2941;DHT22;1480;51.456;6.670;2022-12-18T15:36:39;1.80;61.80
2941;DHT22;1480;51.456;6.670;2022-12-18T15:39:05;2.00;63.00
2941;DHT22;1480;51.456;6.670;2022-12-18T15:41:34;1.90;62.60
2941;DHT22;1480;51.456;6.670;2022-12-18T15:44:01;1.90;62.20
2941;DHT22;1480;51.456;6.670;2022-12-18T15:46:27;1.60;62.30
2941;DHT22;1480;51.456;6.670;2022-12-18T15:48:56;1.60;62.20
2941;DHT22;1480;51.456;6.670;2022-12-18T15:51:26;1.70;62.10
2941;DHT22;1480;51.456;6.670;2022-12-18T15:53:55;1.80;62.10
2941;DHT22;1480;51.456;6.670;2022-12-18T15:56:23;1.50;62.50
2941;DHT22;1480;51.456;6.670;2022-12-18T15:59:10;1.70;62.70
2941;DHT22;1480;51.456;6.670;2022-12-18T16:01:40;1.80;62.90
2941;DHT22;1480;51.456;6.670;2022-12-18T16:04:10;1.50;62.50
2941;DHT22;1480;51.456;6.670;2022-12-18T16:06:38;1.60;62.30
2941;DHT22;1480;51.456;6.670;2022-12-18T16:09:05;1.70;63.00
2941;DHT22;1480;51.456;6.670;2022-12-18T16:11:34;1.60;62.80
2941;DHT22;1480;51.456;6.670;2022-12-18T16:14:12;1.50;63.00
2941;DHT22;1480;51.456;6.670;2022-12-18T16:16:42;1.50;63.00
2941;DHT22;1480;51.456;6.670;2022-12-18T16:19:10;1.60;63.30
2941;DHT22;1480;51.456;6.670;2022-12-18T16:21:37;1.70;63.90
2941;DHT22;1480;51.456;6.670;2022-12-18T16:24:05;1.70;63.60
2941;DHT22;1480;51.456;6.670;2022-12-18T16:26:32;1.60;63.90
2941;DHT22;1480;51.456;6.670;2022-12-18T16:28:59;1.50;63.80
2941;DHT22;1480;51.456;6.670;2022-12-18T16:31:26;1.60;64.10
2941;DHT22;1480;51.456;6.670;2022-12-18T16:34:12;1.40;64.00
2941;DHT22;1480;51.456;6.670;2022-12-18T16:36:39;1.60;64.40
2941;DHT22;1480;51.456;6.670;2022-12-18T16:39:06;1.70;64.80
2941;DHT22;1480;51.456;6.670;2022-12-18T16:41:33;1.40;64.60
2941;DHT22;1480;51.456;6.670;2022-12-18T16:44:01;1.60;65.00
2941;DHT22;1480;51.456;6.670;2022-12-18T16:46:28;1.50;65.10
2941;DHT22;1480;51.456;6.670;2022-12-18T16:48:57;1.60;65.10